Time;durP1;ratioP1;P1;durP2;ratioP2;P2;SDS_P1;SDS_P2;PMS_P1;PMS_P2;Temp;Humidity;BMP_temperature;BMP_pressure;BME280_temperature;BME280_humidity;BME280_pressure;Samples;Min_cycle;Max_cycle;Signal;HPM_P1;HPM_P2
2022/03/16 00:02:05;;;;;;;;;;;6.70;98.10;;;;;;8414703;28;20374;-70
2022/03/16 00:06:07;;;;;;;;;;;6.70;98.10;;;;;;8393688;28;19920;-70
2022/03/16 00:10:09;;;;;;;;;;;6.70;98.10;;;;;;8406095;28;20425;-70
2022/03/16 00:14:11;;;;;;;;;;;6.60;98.00;;;;;;8401137;28;19963;-70
2022/03/16 00:18:13;;;;;;;;;;;6.50;97.90;;;;;;8405957;28;19920;-70
2022/03/16 00:22:14;;;;;;;;;;;6.50;98.10;;;;;;8417150;28;19920;-70
2022/03/16 00:26:16;;;;;;;;;;;6.40;98.10;;;;;;8388076;28;19928;-70
2022/03/16 00:30:18;;;;;;;;;;;6.30;98.00;;;;;;8404114;28;19920;-70
2022/03/16 00:34:19;;;;;;;;;;;6.30;98.20;;;;;;8409434;28;19936;-70
2022/03/16 00:38:21;;;;;;;;;;;6.30;98.20;;;;;;8417938;28;19920;-70
2022/03/16 00:42:23;;;;;;;;;;;6.40;98.40;;;;;;8406182;28;19934;-70
2022/03/16 00:46:24;;;;;;;;;;;6.40;98.20;;;;;;8404074;28;20367;-70
2022/03/16 00:50:27;;;;;;;;;;;6.40;98.10;;;;;;8411106;28;19920;-70
2022/03/16 00:54:28;;;;;;;;;;;6.30;98.00;;;;;;8410715;28;19939;-70
2022/03/16 00:58:31;;;;;;;;;;;6.20;98.10;;;;;;8409240;28;20351;-70
2022/03/16 01:02:32;;;;;;;;;;;6.10;98.10;;;;;;8398376;28;19935;-70
2022/03/16 01:06:34;;;;;;;;;;;6.00;98.20;;;;;;8412122;28;19920;-70
2022/03/16 01:10:37;;;;;;;;;;;6.00;98.20;;;;;;8396980;28;19928;-70
2022/03/16 01:14:39;;;;;;;;;;;6.00;98.40;;;;;;8402264;28;19939;-70
2022/03/16 01:18:40;;;;;;;;;;;6.00;98.30;;;;;;8386118;28;19929;-70
2022/03/16 01:22:42;;;;;;;;;;;6.00;98.40;;;;;;8415218;28;19943;-70
2022/03/16 01:26:43;;;;;;;;;;;6.00;98.60;;;;;;8384900;28;20304;-70
2022/03/16 01:30:45;;;;;;;;;;;6.00;98.70;;;;;;8408537;28;19962;-70
2022/03/16 01:34:47;;;;;;;;;;;6.00;98.60;;;;;;8402797;28;19924;-70
2022/03/16 01:38:48;;;;;;;;;;;6.00;98.60;;;;;;8411911;28;19919;-70
2022/03/16 01:42:50;;;;;;;;;;;6.00;98.70;;;;;;8407810;28;20026;-70
2022/03/16 02:37:38;;;;;;;;;;;5.80;99.80;;;;;;8357948;28;20006;-70
2022/03/16 02:41:40;;;;;;;;;;;5.70;99.90;;;;;;8328219;28;19921;-70
2022/03/16 02:45:41;;;;;;;;;;;5.70;99.90;;;;;;8337074;28;20233;-70
2022/03/16 02:49:43;;;;;;;;;;;5.60;99.90;;;;;;8337051;28;19928;-70
2022/03/16 02:53:46;;;;;;;;;;;5.50;99.90;;;;;;8335607;28;19929;-70
2022/03/16 02:57:47;;;;;;;;;;;5.50;99.90;;;;;;8344874;28;19920;-70
2022/03/16 03:01:49;;;;;;;;;;;5.50;99.90;;;;;;8349360;28;20380;-70
2022/03/16 03:05:51;;;;;;;;;;;5.50;99.90;;;;;;8339538;28;20305;-69
2022/03/16 03:09:53;;;;;;;;;;;5.60;99.90;;;;;;8343654;28;20376;-70
2022/03/16 03:13:54;;;;;;;;;;;5.60;99.90;;;;;;8343646;28;20026;-70
2022/03/16 03:17:56;;;;;;;;;;;5.50;99.90;;;;;;8351593;28;19967;-70
2022/03/16 03:21:57;;;;;;;;;;;5.40;99.90;;;;;;8345534;28;20011;-70
2022/03/16 03:25:59;;;;;;;;;;;5.30;99.90;;;;;;8345992;28;19929;-70
2022/03/16 03:30:01;;;;;;;;;;;5.20;99.90;;;;;;8347123;28;20022;-70
2022/03/16 03:34:02;;;;;;;;;;;5.10;99.80;;;;;;8347734;28;19972;-70
2022/03/16 03:38:04;;;;;;;;;;;5.10;99.90;;;;;;8363815;28;19927;-70
2022/03/16 03:42:06;;;;;;;;;;;5.10;99.90;;;;;;8421179;28;20486;-70
2022/03/16 03:46:07;;;;;;;;;;;5.00;99.90;;;;;;8406642;28;20302;-70
2022/03/16 03:50:09;;;;;;;;;;;4.90;99.90;;;;;;8411342;28;19972;-70
2022/03/16 03:54:11;;;;;;;;;;;4.80;99.90;;;;;;8406281;28;19963;-70
2022/03/16 03:58:12;;;;;;;;;;;4.80;99.90;;;;;;8407159;28;20433;-70
2022/03/16 04:02:19;;;;;;;;;;;4.80;99.90;;;;;;8395209;28;20003;-70
2022/03/16 04:06:21;;;;;;;;;;;4.80;99.90;;;;;;8407987;28;20272;-70
2022/03/16 04:10:23;;;;;;;;;;;4.90;99.90;;;;;;8414700;28;19920;-70
2022/03/16 04:14:24;;;;;;;;;;;4.90;99.90;;;;;;8393633;28;20283;-70
2022/03/16 04:18:27;;;;;;;;;;;5.00;99.90;;;;;;8422038;28;19923;-70
2022/03/16 04:22:28;;;;;;;;;;;5.00;99.90;;;;;;8408308;28;20320;-70
2022/03/16 04:26:35;;;;;;;;;;;5.00;99.90;;;;;;8402842;28;19920;-70
2022/03/16 04:30:36;;;;;;;;;;;5.00;99.90;;;;;;8413738;28;19982;-70
2022/03/16 04:34:38;;;;;;;;;;;5.00;99.90;;;;;;8398207;28;19932;-70
2022/03/16 04:38:40;;;;;;;;;;;5.10;99.90;;;;;;8417962;28;19962;-70
2022/03/16 04:42:41;;;;;;;;;;;5.20;99.90;;;;;;8422262;28;19920;-70
2022/03/16 04:46:43;;;;;;;;;;;5.30;99.90;;;;;;8388318;28;19966;-70
2022/03/16 04:51:00;;;;;;;;;;;5.40;99.90;;;;;;8411658;28;19921;-70
2022/03/16 04:55:02;;;;;;;;;;;5.40;99.90;;;;;;8418787;28;19920;-70
2022/03/16 04:59:04;;;;;;;;;;;5.50;99.90;;;;;;8412509;28;19974;-70
2022/03/16 05:03:06;;;;;;;;;;;5.50;99.90;;;;;;8412246;28;19986;-69
2022/03/16 05:07:07;;;;;;;;;;;5.50;99.90;;;;;;8406096;28;19950;-69
2022/03/16 05:11:09;;;;;;;;;;;5.50;99.90;;;;;;8405926;28;19968;-69
2022/03/16 05:15:14;;;;;;;;;;;5.50;99.90;;;;;;8403635;28;19928;-69
2022/03/16 05:19:16;;;;;;;;;;;5.50;99.90;;;;;;8425412;28;19976;-69
2022/03/16 05:23:17;;;;;;;;;;;5.40;99.90;;;;;;8419988;28;19931;-69
2022/03/16 05:27:20;;;;;;;;;;;5.30;99.90;;;;;;8402637;28;19986;-69
2022/03/16 05:31:22;;;;;;;;;;;5.30;99.90;;;;;;8424061;28;19938;-69
2022/03/16 05:35:23;;;;;;;;;;;5.30;99.90;;;;;;8420786;28;19920;-69
2022/03/16 05:39:25;;;;;;;;;;;5.30;99.90;;;;;;8405485;28;19932;-69
2022/03/16 05:43:27;;;;;;;;;;;5.30;99.90;;;;;;8416112;28;20379;-69
2022/03/16 05:47:30;;;;;;;;;;;5.40;99.90;;;;;;8411968;28;22339;-69
2022/03/16 05:51:32;;;;;;;;;;;5.30;99.90;;;;;;8398948;28;19967;-69
2022/03/16 05:55:34;;;;;;;;;;;5.40;99.90;;;;;;8405190;28;20376;-70
2022/03/16 05:59:35;;;;;;;;;;;5.40;99.90;;;;;;8417852;28;19932;-69
2022/03/16 06:03:37;;;;;;;;;;;5.40;99.90;;;;;;8425385;28;20422;-69
2022/03/16 06:07:39;;;;;;;;;;;5.40;99.90;;;;;;8421025;28;19924;-69
2022/03/16 06:11:41;;;;;;;;;;;5.50;99.90;;;;;;8395198;28;20384;-69
2022/03/16 06:15:43;;;;;;;;;;;5.50;99.90;;;;;;8416644;28;20373;-69
2022/03/16 06:19:45;;;;;;;;;;;5.60;99.90;;;;;;8411187;28;19924;-69
2022/03/16 06:23:46;;;;;;;;;;;5.70;99.90;;;;;;8409552;28;20399;-69
2022/03/16 06:27:48;;;;;;;;;;;5.70;99.90;;;;;;8415268;28;19932;-69
2022/03/16 06:31:50;;;;;;;;;;;5.80;99.90;;;;;;8416184;28;19928;-69
2022/03/16 06:35:51;;;;;;;;;;;5.90;99.90;;;;;;8415244;28;20276;-69
2022/03/16 06:39:53;;;;;;;;;;;6.10;99.90;;;;;;8409591;28;19924;-69
2022/03/16 06:48:57;;;;;;;;;;;6.40;99.90;;;;;;8406817;28;19935;-69
2022/03/16 06:52:59;;;;;;;;;;;6.60;99.90;;;;;;8399202;28;19955;-69
2022/03/16 06:57:01;;;;;;;;;;;6.70;99.90;;;;;;8418569;28;20149;-69
2022/03/16 07:01:16;;;;;;;;;;;6.80;99.90;;;;;;8417265;28;19924;-69
2022/03/16 07:05:18;;;;;;;;;;;6.90;99.90;;;;;;8417699;28;19931;-69
2022/03/16 07:09:22;;;;;;;;;;;7.00;99.90;;;;;;8423072;28;19962;-69
2022/03/16 07:13:24;;;;;;;;;;;7.10;99.90;;;;;;8428896;28;19931;-69
2022/03/16 07:17:26;;;;;;;;;;;7.20;99.90;;;;;;8433363;28;19975;-70
2022/03/16 07:21:28;;;;;;;;;;;7.30;99.90;;;;;;8434626;28;19924;-69
2022/03/16 07:25:30;;;;;;;;;;;7.40;99.90;;;;;;8428747;28;19931;-69
2022/03/16 07:29:31;;;;;;;;;;;7.50;99.90;;;;;;8410592;28;19935;-69
2022/03/16 07:33:33;;;;;;;;;;;7.60;99.90;;;;;;8427416;28;19924;-69
2022/03/16 07:37:35;;;;;;;;;;;7.70;99.90;;;;;;8422555;28;20007;-69
2022/03/16 07:41:37;;;;;;;;;;;7.90;99.90;;;;;;8422727;28;19947;-69
2022/03/16 07:45:39;;;;;;;;;;;8.00;99.90;;;;;;8431037;28;19970;-69
2022/03/16 07:49:40;;;;;;;;;;;8.10;99.90;;;;;;8422449;28;19979;-69
2022/03/16 07:53:42;;;;;;;;;;;8.20;99.90;;;;;;8422684;28;20351;-69
2022/03/16 07:57:44;;;;;;;;;;;8.40;99.90;;;;;;8415147;28;19924;-70
2022/03/16 08:01:47;;;;;;;;;;;8.50;99.90;;;;;;8417433;28;19935;-69
2022/03/16 08:05:49;;;;;;;;;;;8.60;99.90;;;;;;8433655;28;19924;-69
2022/03/16 08:09:50;;;;;;;;;;;8.80;99.90;;;;;;8417726;28;19967;-69
2022/03/16 08:13:52;;;;;;;;;;;9.00;99.90;;;;;;8430045;28;20271;-69
2022/03/16 08:17:53;;;;;;;;;;;9.00;99.90;;;;;;8428181;28;19943;-69
2022/03/16 08:21:55;;;;;;;;;;;9.00;99.90;;;;;;8411497;28;20441;-69
2022/03/16 08:25:58;;;;;;;;;;;9.10;99.90;;;;;;8429974;28;20025;-70
2022/03/16 08:30:00;;;;;;;;;;;9.20;99.90;;;;;;8419284;28;19930;-70
2022/03/16 08:34:02;;;;;;;;;;;9.30;99.90;;;;;;8433762;28;19938;-70
2022/03/16 08:38:04;;;;;;;;;;;9.30;99.90;;;;;;8411397;28;19971;-69
2022/03/16 08:42:06;;;;;;;;;;;9.40;99.90;;;;;;8418244;28;19931;-70
2022/03/16 08:46:07;;;;;;;;;;;9.40;99.90;;;;;;8425508;28;20376;-70
2022/03/16 08:50:09;;;;;;;;;;;9.40;99.90;;;;;;8396830;28;19930;-69
2022/03/16 08:54:11;;;;;;;;;;;9.50;99.90;;;;;;8418103;28;19964;-69
2022/03/16 08:58:15;;;;;;;;;;;9.60;99.90;;;;;;8425318;28;19971;-69
2022/03/16 09:02:17;;;;;;;;;;;9.60;99.90;;;;;;8408501;28;20368;-69
2022/03/16 09:06:19;;;;;;;;;;;9.60;99.90;;;;;;8421011;28;19924;-70
2022/03/16 09:10:21;;;;;;;;;;;9.70;99.90;;;;;;8421994;28;19971;-70
2022/03/16 09:14:23;;;;;;;;;;;9.90;99.90;;;;;;8422287;28;19943;-69
2022/03/16 09:18:26;;;;;;;;;;;10.10;99.90;;;;;;8425993;28;19970;-69
2022/03/16 09:22:31;;;;;;;;;;;10.30;99.90;;;;;;8428293;28;19924;-69
2022/03/16 09:26:32;;;;;;;;;;;10.50;99.90;;;;;;8422667;28;19963;-70
2022/03/16 09:30:35;;;;;;;;;;;10.80;99.90;;;;;;8419050;28;19931;-69
2022/03/16 09:34:37;;;;;;;;;;;11.00;99.90;;;;;;8425168;28;19931;-67
2022/03/16 09:38:39;;;;;;;;;;;11.20;99.90;;;;;;8424795;28;19924;-67
2022/03/16 09:42:42;;;;;;;;;;;11.30;99.90;;;;;;8414574;28;19960;-67
2022/03/16 09:46:44;;;;;;;;;;;11.50;99.90;;;;;;8423956;28;20322;-67
2022/03/16 09:50:46;;;;;;;;;;;11.70;99.90;;;;;;8409584;28;19936;-67
2022/03/16 09:54:48;;;;;;;;;;;11.80;99.90;;;;;;8412038;28;19975;-67
2022/03/16 09:58:49;;;;;;;;;;;11.90;99.90;;;;;;8407992;28;20094;-67
2022/03/16 10:02:52;;;;;;;;;;;12.20;99.90;;;;;;8399373;28;19924;-67
2022/03/16 10:06:54;;;;;;;;;;;12.50;99.90;;;;;;8405050;28;19924;-67
2022/03/16 10:15:23;;;;;;;;;;;13.00;99.90;;;;;;8410340;28;19928;-67
2022/03/16 10:19:25;;;;;;;;;;;13.20;99.90;;;;;;8406378;28;19924;-67
2022/03/16 10:23:28;;;;;;;;;;;13.50;99.90;;;;;;8413407;28;19964;-67
2022/03/16 10:27:30;;;;;;;;;;;13.60;99.90;;;;;;8408805;28;19968;-67
2022/03/16 10:31:31;;;;;;;;;;;13.70;99.90;;;;;;8394015;28;19959;-67
2022/03/16 10:35:33;;;;;;;;;;;13.80;99.90;;;;;;8390261;28;19997;-67
2022/03/16 10:39:36;;;;;;;;;;;14.20;99.90;;;;;;8407901;28;19959;-67
2022/03/16 10:47:58;;;;;;;;;;;14.70;99.90;;;;;;8395902;28;20229;-67
2022/03/16 10:52:05;;;;;;;13.50;8.02;;;15.00;99.90;;;;;;8418055;28;19956;-67
2022/03/16 10:56:08;;;;;;;;;;;15.30;99.90;;;;;;8399247;28;20071;-68
2022/03/16 11:00:10;;;;;;;10.85;7.30;;;15.30;99.90;;;;;;8385354;28;20007;-68
2022/03/16 11:04:13;;;;;;;;;;;15.60;99.90;;;;;;8382835;28;20493;-67
2022/03/16 11:08:15;;;;;;;;;;;15.90;99.90;;;;;;8389521;28;19920;-68
2022/03/16 11:16:43;;;;;;;;;;;16.60;99.90;;;;;;8395655;28;19928;-67
2022/03/16 11:20:53;;;;;;;;;;;17.00;99.90;;;;;;8412243;28;19920;-67
2022/03/16 11:24:56;;;;;;;;;;;17.10;99.90;;;;;;8391603;28;21914;-68
2022/03/16 11:29:16;;;;;;;;;;;17.30;99.90;;;;;;8409657;28;19928;-67
2022/03/16 11:33:18;;;;;;;;;;;17.40;99.90;;;;;;8412801;28;19920;-68
2022/03/16 11:37:39;;;;;;;10.77;7.70;;;17.20;99.90;;;;;;8397073;28;19931;-67
2022/03/16 11:41:47;;;;;;;;;;;16.90;99.90;;;;;;8398104;28;20083;-68
2022/03/16 11:45:57;;;;;;;;;;;16.90;99.90;;;;;;8415339;28;19959;-68
2022/03/16 11:50:05;;;;;;;;;;;17.20;99.90;;;;;;8396543;28;19920;-67
2022/03/16 11:54:08;;;;;;;10.38;7.28;;;17.40;99.90;;;;;;8399604;28;19964;-68
2022/03/16 11:58:25;;;;;;;11.45;7.38;;;16.90;99.90;;;;;;8403460;28;20036;-67
2022/03/16 12:02:27;;;;;;;11.10;7.60;;;16.40;99.90;;;;;;8402093;28;20044;-68
2022/03/16 12:06:30;;;;;;;;;;;16.40;99.90;;;;;;8403598;28;20150;-67
2022/03/16 12:10:44;;;;;;;;;;;16.90;99.90;;;;;;8384227;28;19932;-67
2022/03/16 12:15:18;;;;;;;10.48;7.32;;;17.20;99.90;;;;;;8419798;28;20035;-68
2022/03/16 12:19:27;;;;;;;;;;;17.00;99.90;;;;;;8387822;28;20094;-67
2022/03/16 12:23:52;;;;;;;10.95;7.85;;;16.60;99.90;;;;;;8400708;28;19920;-67
2022/03/16 12:32:22;;;;;;;;;;;16.80;99.90;;;;;;8402461;28;19967;-67
2022/03/16 12:36:33;;;;;;;;;;;16.70;99.90;;;;;;8389565;28;19924;-67
2022/03/16 12:42:31;;;;;;;;;;;16.30;99.90;;;;;;8403817;28;19955;-67
2022/03/16 12:45:04;;;;;;;;;;;16.00;99.90;;;;;;8415134;28;20296;-67
2022/03/16 12:49:06;;;;;;;;;;;15.50;99.70;;;;;;8417388;28;20010;-67
2022/03/16 12:53:08;;;;;;;;;;;15.20;99.60;;;;;;8407555;28;19928;-67
2022/03/16 12:57:11;;;;;;;;;;;15.10;99.70;;;;;;8392489;28;19966;-67
2022/03/16 13:01:17;;;;;;;;;;;15.00;99.70;;;;;;8401091;28;19920;-67
2022/03/16 13:05:20;;;;;;;;;;;15.10;99.80;;;;;;8409389;28;19929;-67
2022/03/16 13:09:26;;;;;;;;;;;15.10;99.70;;;;;;8387988;28;19999;-67
2022/03/16 13:13:28;;;;;;;;;;;15.10;99.90;;;;;;8396961;28;19920;-67
2022/03/16 13:17:34;;;;;;;;;;;15.10;99.90;;;;;;8411650;28;19964;-67
2022/03/16 13:21:37;;;;;;;;;;;15.20;99.90;;;;;;8405208;28;19935;-68
2022/03/16 13:25:39;;;;;;;;;;;15.20;99.90;;;;;;8412193;28;19928;-67
2022/03/16 13:29:42;;;;;;;;;;;15.30;99.90;;;;;;8420605;28;20367;-67
2022/03/16 13:33:45;;;;;;;;;;;15.30;99.90;;;;;;8413993;28;19964;-67
2022/03/16 13:37:47;;;;;;;;;;;15.30;99.90;;;;;;8389808;28;20374;-67
2022/03/16 13:42:11;;;;;;;;;;;15.40;99.90;;;;;;8405250;28;19971;-67
2022/03/16 13:46:14;;;;;;;;;;;15.30;99.90;;;;;;8398575;28;19960;-67
2022/03/16 13:50:17;;;;;;;;;;;15.30;99.90;;;;;;8406206;28;19927;-67
2022/03/16 13:54:24;;;;;;;;;;;15.20;99.90;;;;;;8386053;28;20308;-67
2022/03/16 13:58:26;;;;;;;;;;;15.10;99.90;;;;;;8405191;28;19963;-67
2022/03/16 14:02:28;;;;;;;;;;;15.10;99.90;;;;;;8412482;28;19928;-67
2022/03/16 14:06:58;;;;;;;;;;;15.20;99.90;;;;;;8404381;28;20011;-67
2022/03/16 14:11:00;;;;;;;;;;;15.40;99.90;;;;;;8396944;28;19920;-67
2022/03/16 14:15:08;;;;;;;;;;;15.40;99.90;;;;;;8435820;28;19920;-67
2022/03/16 14:19:29;;;;;;;;;;;15.40;99.90;;;;;;8397581;28;19955;-67
2022/03/16 14:23:32;;;;;;;;;;;15.30;99.90;;;;;;8423168;28;19967;-67
2022/03/16 14:27:34;;;;;;;;;;;15.30;99.90;;;;;;8417025;28;19974;-67
2022/03/16 14:31:37;;;;;;;;;;;15.30;99.90;;;;;;8421843;28;19927;-67
2022/03/16 14:35:39;;;;;;;;;;;15.30;99.90;;;;;;8405691;28;19920;-67
2022/03/16 14:39:40;;;;;;;;;;;15.30;99.90;;;;;;8388486;28;19967;-67
2022/03/16 14:43:42;;;;;;;;;;;15.20;99.90;;;;;;8393279;28;19974;-67
2022/03/16 14:47:44;;;;;;;;;;;15.20;99.90;;;;;;8390194;28;19967;-68
2022/03/16 14:51:46;;;;;;;;;;;15.00;99.90;;;;;;8392243;28;19928;-67
2022/03/16 14:55:47;;;;;;;;;;;14.90;99.90;;;;;;8389627;28;19935;-67
2022/03/16 14:59:49;;;;;;;;;;;15.00;99.90;;;;;;8370110;28;20291;-67
2022/03/16 15:03:50;;;;;;;;;;;14.90;99.90;;;;;;8392409;28;19927;-67
2022/03/16 15:07:52;;;;;;;;;;;14.80;99.90;;;;;;8385765;28;19981;-67
2022/03/16 15:11:54;;;;;;;;;;;14.70;99.90;;;;;;8390651;28;19955;-67
2022/03/16 15:15:55;;;;;;;;;;;14.70;99.90;;;;;;8376780;28;19940;-67
2022/03/16 15:19:57;;;;;;;;;;;14.70;99.90;;;;;;8396198;28;19924;-67
2022/03/16 15:24:00;;;;;;;;;;;14.70;99.90;;;;;;8397298;28;19920;-67
2022/03/16 15:28:02;;;;;;;;;;;14.60;99.90;;;;;;8391874;28;19967;-67
2022/03/16 15:32:04;;;;;;;;;;;14.60;99.90;;;;;;8385152;28;20007;-67
2022/03/16 15:36:06;;;;;;;;;;;14.60;99.90;;;;;;8396320;28;19932;-67
2022/03/16 15:44:28;;;;;;;;;;;14.60;99.90;;;;;;8392377;28;19983;-67
2022/03/16 15:48:30;;;;;;;;;;;14.60;99.90;;;;;;8393703;28;20015;-67
2022/03/16 15:52:33;;;;;;;;;;;14.50;99.90;;;;;;8379491;28;19921;-67
2022/03/16 15:56:35;;;;;;;;;;;14.40;99.90;;;;;;8377996;28;19927;-67
2022/03/16 16:00:37;;;;;;;;;;;14.40;99.90;;;;;;8379692;28;19935;-67
2022/03/16 16:04:38;;;;;;;;;;;14.30;99.90;;;;;;8401682;28;20005;-67
2022/03/16 16:08:40;;;;;;;;;;;14.20;99.90;;;;;;8385204;28;19938;-67
2022/03/16 16:12:42;;;;;;;;;;;14.20;99.90;;;;;;8394767;28;20354;-67
2022/03/16 16:16:48;;;;;;;;;;;14.20;99.90;;;;;;8392435;28;20367;-67
2022/03/16 16:20:49;;;;;;;;;;;14.10;99.90;;;;;;8392705;28;20643;-67
2022/03/16 16:24:51;;;;;;;;;;;14.00;99.90;;;;;;8394126;28;20254;-67
2022/03/16 16:28:56;;;;;;;;;;;14.00;99.90;;;;;;8373322;28;19970;-67
2022/03/16 16:32:58;;;;;;;;;;;13.90;99.90;;;;;;8396813;28;20023;-67
2022/03/16 16:37:00;;;;;;;;;;;13.90;99.90;;;;;;8397939;28;20325;-67
2022/03/16 16:41:01;;;;;;;;;;;13.80;99.90;;;;;;8398517;28;19972;-67
2022/03/16 16:45:03;;;;;;;;;;;13.80;99.90;;;;;;8399377;28;19925;-67
2022/03/16 16:49:05;;;;;;;;;;;13.80;99.90;;;;;;8389947;28;19924;-67
2022/03/16 16:53:08;;;;;;;;;;;13.70;99.90;;;;;;8395080;28;19959;-67
2022/03/16 16:57:11;;;;;;;;;;;13.70;99.90;;;;;;8388707;28;20384;-67
2022/03/16 17:01:14;;;;;;;;;;;13.70;99.90;;;;;;8391415;28;20333;-67
2022/03/16 17:15:26;;;;;;;;;;;13.50;99.90;;;;;;8391592;28;19931;-67
2022/03/16 17:19:27;;;;;;;;;;;13.50;99.90;;;;;;8410881;28;19924;-67
2022/03/16 17:23:29;;;;;;;;;;;13.40;99.90;;;;;;8393342;28;20419;-67
2022/03/16 17:27:32;;;;;;;;;;;13.40;99.90;;;;;;8391580;28;19959;-67
2022/03/16 17:31:34;;;;;;;;;;;13.40;99.90;;;;;;8397352;28;19967;-67
2022/03/16 17:35:36;;;;;;;;;;;13.30;99.90;;;;;;8394424;28;20014;-67
2022/03/16 17:39:37;;;;;;;;;;;13.30;99.90;;;;;;8375967;28;19975;-67
2022/03/16 17:48:01;;;;;;;;;;;13.20;99.90;;;;;;8399570;28;19998;-67
2022/03/16 17:52:03;;;;;;;;;;;13.10;99.90;;;;;;8387588;28;19928;-67
2022/03/16 18:00:26;;;;;;;;;;;13.00;99.90;;;;;;8388533;28;19924;-67
2022/03/16 18:04:27;;;;;;;;;;;13.00;99.90;;;;;;8396191;28;19963;-67
2022/03/16 18:08:29;;;;;;;;;;;13.00;99.90;;;;;;8395739;28;20664;-67
2022/03/16 18:16:51;;;;;;;;;;;12.90;99.90;;;;;;8394345;28;19974;-67
2022/03/16 18:20:54;;;;;;;;;;;12.90;99.90;;;;;;8392943;28;20014;-67
2022/03/16 18:24:56;;;;;;;;;;;12.80;99.90;;;;;;8391502;28;19967;-67
2022/03/16 18:28:57;;;;;;;;;;;12.80;99.90;;;;;;8390475;28;19928;-67
2022/03/16 18:33:06;;;;;;;;;;;12.80;99.90;;;;;;8374543;28;20410;-67
2022/03/16 18:37:10;;;;;;;;;;;12.80;99.90;;;;;;8391023;28;19934;-67
2022/03/16 18:41:14;;;;;;;;;;;12.80;99.90;;;;;;8390471;28;19972;-67
2022/03/16 18:45:16;;;;;;;;;;;12.70;99.90;;;;;;8389689;28;19931;-67
2022/03/16 18:49:18;;;;;;;;;;;12.70;99.90;;;;;;8376538;28;20010;-67
2022/03/16 18:53:19;;;;;;;;;;;12.70;99.90;;;;;;8376708;28;19956;-67
2022/03/16 18:57:21;;;;;;;;;;;12.70;99.90;;;;;;8393185;28;19943;-67
2022/03/16 19:01:27;;;;;;;;;;;12.70;99.90;;;;;;8394730;28;19920;-67
2022/03/16 19:05:32;;;;;;;;;;;12.60;99.90;;;;;;8390692;28;19920;-67
2022/03/16 19:09:37;;;;;;;;;;;12.60;99.90;;;;;;8393485;28;19962;-67
2022/03/16 19:13:46;;;;;;;;;;;12.60;99.90;;;;;;8377852;28;19925;-67
2022/03/16 19:17:49;;;;;;;;;;;12.60;99.90;;;;;;8388993;28;19927;-67
2022/03/16 19:21:51;;;;;;;;;;;12.50;99.90;;;;;;8390601;28;20015;-67
2022/03/16 19:25:53;;;;;;;;;;;12.50;99.90;;;;;;8386253;28;20466;-67
2022/03/16 19:29:59;;;;;;;;;;;12.50;99.90;;;;;;8385467;28;19946;-67
2022/03/16 19:34:01;;;;;;;;;;;12.50;99.90;;;;;;8375750;28;20379;-67
2022/03/16 19:38:04;;;;;;;;;;;12.50;99.90;;;;;;8386859;28;20055;-67
2022/03/16 19:42:07;;;;;;;;;;;12.50;99.90;;;;;;8387698;28;19958;-67
2022/03/16 19:46:09;;;;;;;;;;;12.50;99.90;;;;;;8368415;28;19955;-67
2022/03/16 19:50:12;;;;;;;;;;;12.40;99.90;;;;;;8389813;28;20031;-67
2022/03/16 19:54:15;;;;;;;;;;;12.40;99.90;;;;;;8369597;28;19959;-67
2022/03/16 19:58:17;;;;;;;;;;;12.40;99.90;;;;;;8391265;28;20400;-67
2022/03/16 20:02:21;;;;;;;;;;;12.30;99.90;;;;;;8386495;28;20386;-67
2022/03/16 20:06:28;;;;;;;;;;;12.40;99.90;;;;;;8370610;28;19924;-67
2022/03/16 20:10:30;;;;;;;;;;;12.30;99.90;;;;;;8381532;28;19980;-67
2022/03/16 20:14:31;;;;;;;;;;;12.30;99.90;;;;;;8392091;28;20798;-67
2022/03/16 20:18:36;;;;;;;;;;;12.30;99.90;;;;;;8398925;28;19924;-67
2022/03/16 20:22:39;;;;;;;;;;;12.30;99.90;;;;;;8376677;28;19962;-67
2022/03/16 20:26:40;;;;;;;;;;;12.30;99.90;;;;;;8373411;28;20043;-67
2022/03/16 20:30:42;;;;;;;;;;;12.30;99.90;;;;;;8377233;28;19920;-67
2022/03/16 20:34:44;;;;;;;;;;;12.20;99.90;;;;;;8391270;28;19952;-67
2022/03/16 20:38:46;;;;;;;;;;;12.20;99.90;;;;;;8382633;28;20406;-67
2022/03/16 20:42:48;;;;;;;;;;;12.30;99.90;;;;;;8380689;28;20484;-67
2022/03/16 20:46:49;;;;;;;;;;;12.20;99.90;;;;;;8385706;28;19928;-67
2022/03/16 20:50:53;;;;;;;;;;;12.20;99.90;;;;;;8388030;28;20007;-67
2022/03/16 20:54:55;;;;;;;;;;;12.20;99.90;;;;;;8392367;28;20437;-67
2022/03/16 21:03:32;;;;;;;;;;;12.10;99.90;;;;;;8390263;28;20241;-67
2022/03/16 21:07:34;;;;;;;;;;;12.10;99.90;;;;;;8381685;28;19959;-67
2022/03/16 21:11:38;;;;;;;;;;;12.10;99.90;;;;;;8379492;28;19925;-67
2022/03/16 21:15:41;;;;;;;;;;;12.00;99.90;;;;;;8377581;28;20298;-67
2022/03/16 21:19:43;;;;;;;;;;;12.00;99.90;;;;;;8371390;28;19960;-67
2022/03/16 21:23:47;;;;;;;;;;;12.00;99.90;;;;;;8387917;28;19921;-67
2022/03/16 21:27:50;;;;;;;;;;;12.00;99.90;;;;;;8391397;28;19963;-67
2022/03/16 21:31:52;;;;;;;;;;;12.00;99.90;;;;;;8377057;28;20392;-67
2022/03/16 21:35:54;;;;;;;;;;;12.00;99.90;;;;;;8401572;28;20722;-67
2022/03/16 21:45:28;;;;;;;;;;;12.00;99.90;;;;;;8388232;28;20370;-67
2022/03/16 21:48:49;;;;;;;;;;;12.00;99.90;;;;;;8384496;28;20394;-67
2022/03/16 21:52:51;;;;;;;;;;;12.00;99.90;;;;;;8410026;28;20386;-67
2022/03/16 21:56:53;;;;;;;;;;;12.00;99.90;;;;;;8403768;28;19974;-67
2022/03/16 22:00:58;;;;;;;;;;;12.00;99.90;;;;;;8391882;28;19963;-67
2022/03/16 22:05:04;;;;;;;;;;;12.00;99.90;;;;;;8393441;28;20368;-67
2022/03/16 22:09:07;;;;;;;;;;;11.90;99.90;;;;;;8411651;28;19971;-67
2022/03/16 22:13:08;;;;;;;;;;;11.90;99.90;;;;;;8393272;28;19926;-67
2022/03/16 22:17:15;;;;;;;;;;;11.90;99.90;;;;;;8384534;28;21715;-67
2022/03/16 22:21:21;;;;;;;;;;;11.90;99.90;;;;;;8395866;28;20287;-67
2022/03/16 22:25:22;;;;;;;;;;;11.90;99.90;;;;;;8400883;28;20121;-67
2022/03/16 22:29:24;;;;;;;;;;;11.90;99.90;;;;;;8412773;28;20379;-67
2022/03/16 22:33:25;;;;;;;;;;;11.90;99.90;;;;;;8420460;28;19959;-67
2022/03/16 22:37:30;;;;;;;;;;;11.90;99.90;;;;;;8392673;28;19924;-67
2022/03/16 22:41:32;;;;;;;;;;;11.90;99.90;;;;;;8387096;28;19928;-67
2022/03/16 22:45:34;;;;;;;;;;;11.90;99.90;;;;;;8397082;28;19999;-67
2022/03/16 22:49:36;;;;;;;;;;;11.90;99.90;;;;;;8383386;28;19927;-67
2022/03/16 22:53:37;;;;;;;;;;;11.90;99.90;;;;;;8414352;28;20294;-67
2022/03/16 22:57:39;;;;;;;;;;;11.80;99.90;;;;;;8402559;28;19970;-67
2022/03/16 23:01:41;;;;;;;;;;;11.90;99.90;;;;;;8383545;28;19920;-67
2022/03/16 23:05:42;;;;;;;;;;;11.90;99.90;;;;;;8411811;28;19967;-67
2022/03/16 23:09:45;;;;;;;;;;;11.90;99.90;;;;;;8403899;28;19946;-67
2022/03/16 23:13:47;;;;;;;;;;;11.80;99.90;;;;;;8384984;28;20411;-67
2022/03/16 23:17:49;;;;;;;;;;;11.80;99.90;;;;;;8396533;28;20418;-67
2022/03/16 23:21:51;;;;;;;;;;;11.80;99.90;;;;;;8387075;28;19989;-67
2022/03/16 23:25:53;;;;;;;;;;;11.80;99.90;;;;;;8403714;28;19946;-67
2022/03/16 23:29:55;;;;;;;;;;;11.80;99.90;;;;;;8388340;28;19920;-67
2022/03/16 23:33:57;;;;;;;;;;;11.80;99.90;;;;;;8409967;28;19951;-67
2022/03/16 23:37:58;;;;;;;;;;;11.80;99.90;;;;;;8409410;28;19963;-67
2022/03/16 23:42:00;;;;;;;;;;;11.80;99.90;;;;;;8423444;28;20014;-67
2022/03/16 23:46:03;;;;;;;;;;;11.80;99.90;;;;;;8406594;28;19967;-67
2022/03/16 23:50:06;;;;;;;;;;;11.70;99.90;;;;;;8394547;28;19920;-67
2022/03/16 23:54:08;;;;;;;;;;;11.70;99.90;;;;;;8400647;28;19975;-67
2022/03/16 23:58:10;;;;;;;;;;;11.70;99.90;;;;;;8416351;28;19943;-67
